Aérodrome :
LOGIN :

S'inscrire | Disclaimer

   EN    FR    IT 

 










Légende :    VFR   VFR Marginal   IFR   IFR Intensif   IFR Très Intensif
Visi : 
Plafond : 
>= 8 km
>= 3000ft
5 à 8 km
1000 à 3000 ft
1500m à 5 km
500 à 1000 ft
800 à 1500m
200 à 500 ft
< 800m
< 200 ft
Symboles :   Orages  Brouillard  Fortes neiges  Fortes précipitations  Vent > 20 kt
SIGMETs :   Divers  Orages  Givrage  Turbulence  Onde Orograph.  Cendres Volcan.






- Altitude de l'aérodrome : 13 ft
- Code IATA : SNR


LFRZ - St-Nazaire

DERNIER METAR :
  • 231930Z AUTO 23006KT CAVOK 02/01 Q0995 TEMPO VRB15G30KT 4500 -SHRA BKN035 SCT050CB

METARs EXPIRÉS :
  • 231900Z AUTO 24005KT CAVOK 03/02 Q0995 TEMPO VRB15G30KT 4500 -SHRA BKN035 SCT050CB
  • 231830Z AUTO 24005KT 9999 FEW041 04/02 Q0995 TEMPO VRB15G30KT 4500 -SHRA BKN035 SCT050CB
  • 231800Z AUTO 29007KT 260V330 9999 -RA FEW020/// BKN026/// BKN032/// ///CB 05/03 Q0995 TEMPO VRB15G30KT 4500 -SHRA
  • 231730Z AUTO 29007KT 260V360 9999 -RA SCT037/// BKN058/// BKN076/// //////CB 06/03 Q0995 TEMPO VRB15G30KT 4500 -SHRA
  • 231700Z AUTO 29014KT 9999 -RA SCT025/// SCT033/// BKN046/// //////CB 06/03 Q0994 TEMPO VRB15G30KT 4500 -SHRA
  • 231630Z AUTO 25006KT 210V290 9999 SCT037/// SCT048/// BKN060/// //////CB 07/05 Q0994 TEMPO VRB15G30KT 4500 -SHRA
  • 231600Z AUTO 28007KT 9999 FEW031 SCT054 BKN096 07/04 Q0994 TEMPO VRB15G30KT 4500 -SHRA BKN035 SCT050CB
  • 231530Z AUTO 29011KT 9999 SCT032/// SCT048/// BKN064/// //////CB 07/04 Q0994 TEMPO VRB15G30KT 4500 -SHRA
  • 231500Z AUTO 26020G33KT 9999 1100 R25/1400D RA FEW027/// SCT033/// BKN056/// //////CB 07/04 Q0994 TEMPO 4500 -SHRA

TAF TAF LFRZ
Valide du 23 à 18h jusqu'au 24 à 18h UTC


231700Z 2318/2418 24006KT 9999 BKN035
TEMPO 2318/2402 VRB15G30KT 4500 -SHRA BKN035 SCT050CB
TEMPO 2406/2414 VRB15G28KT 2500 SHRA BKN014 SCT050CB



MET'MAP, la Météo Aéronautique d'un coup d'oeil ! - Copyright ORBIFLY Décembre 2007 - Disclaimer

ORBIFLY MET'MAP TEAM :

Programmation & Développement : Alexandra Zaïnal
Sur une idée originale de : Baudouin d'Aumeries
Soutien technique & logistique : Manuel Goepfert
Assistance : Marc-Olivier Méhu




SOURCES & CREDITS :

   NOAA